createdAt,value
2023-01-07T00:00:00.706Z,192.8
2023-01-07T00:05:00.654Z,182.9
2023-01-07T00:10:00.660Z,186.7
2023-01-07T00:15:00.678Z,194.4
2023-01-07T00:20:00.672Z,184.8
2023-01-07T00:25:00.691Z,184.6
2023-01-07T00:30:00.678Z,185.0
2023-01-07T00:35:00.668Z,186.2
2023-01-07T00:40:00.835Z,197.3
2023-01-07T00:45:00.652Z,187.7
2023-01-07T00:50:01.333Z,184.7
2023-01-07T00:55:00.754Z,189.2
2023-01-07T01:00:00.716Z,189.6
2023-01-07T01:05:00.682Z,180.9
2023-01-07T01:10:00.759Z,188.9
2023-01-07T01:15:00.674Z,189.1
2023-01-07T01:20:00.790Z,192.9
2023-01-07T01:25:00.717Z,184.8
2023-01-07T01:30:00.704Z,185.1
2023-01-07T01:35:00.699Z,188.3
2023-01-07T01:40:00.733Z,195.2
2023-01-07T01:45:00.667Z,193.4
2023-01-07T01:50:00.702Z,192.9
2023-01-07T01:55:00.667Z,190.0
2023-01-07T02:00:00.769Z,185.7
2023-01-07T02:05:00.661Z,191.0
2023-01-07T02:10:00.762Z,187.4
2023-01-07T02:15:00.766Z,170.6
2023-01-07T02:20:00.882Z,182.1
2023-01-07T02:25:00.670Z,186.1
2023-01-07T02:30:00.773Z,179.6
2023-01-07T02:35:00.723Z,192.9
2023-01-07T02:40:00.748Z,191.8
2023-01-07T02:45:00.700Z,190.0
2023-01-07T02:50:00.749Z,191.2
2023-01-07T02:55:00.711Z,176.6
2023-01-07T03:00:00.690Z,180.3
2023-01-07T03:05:00.666Z,183.9
2023-01-07T03:10:00.747Z,198.8
2023-01-07T03:15:00.669Z,189.7
2023-01-07T03:20:00.716Z,193.7
2023-01-07T03:25:00.660Z,187.4
2023-01-07T03:30:00.659Z,185.2
2023-01-07T03:35:00.666Z,182.6
2023-01-07T03:40:00.665Z,182.0
2023-01-07T03:45:00.716Z,177.9
2023-01-07T03:50:00.748Z,193.3
2023-01-07T03:55:00.696Z,184.0
2023-01-07T04:00:00.835Z,177.1
2023-01-07T04:05:00.633Z,177.4
2023-01-07T04:10:00.748Z,173.2
2023-01-07T04:15:00.692Z,204.8
2023-01-07T04:20:00.689Z,179.7
2023-01-07T04:25:00.706Z,198.2
2023-01-07T04:30:00.763Z,177.7
2023-01-07T04:35:00.723Z,188.8
2023-01-07T04:40:00.713Z,199.2
2023-01-07T04:45:00.660Z,189.9
2023-01-07T04:50:00.721Z,190.7
2023-01-07T04:55:00.731Z,197.6
2023-01-07T05:00:00.888Z,179.1
2023-01-07T05:05:00.640Z,188.0
2023-01-07T05:10:00.756Z,188.1
2023-01-07T05:15:00.749Z,185.9
2023-01-07T05:20:00.796Z,184.7
2023-01-07T05:25:00.707Z,195.5
2023-01-07T05:30:00.764Z,178.7
2023-01-07T05:35:00.726Z,173.2
2023-01-07T05:40:00.703Z,171.5
2023-01-07T05:45:00.713Z,173.4
2023-01-07T05:50:00.735Z,175.5
2023-01-07T05:55:00.681Z,179.2
2023-01-07T06:00:00.740Z,169.6
2023-01-07T06:05:01.058Z,160.2
2023-01-07T06:10:03.489Z,158.5
2023-01-07T06:15:01.261Z,176.5
2023-01-07T06:20:00.753Z,165.3
2023-01-07T06:25:00.713Z,160.3
2023-01-07T06:30:00.723Z,175.3
2023-01-07T06:35:00.656Z,160.7
2023-01-07T06:40:00.681Z,178.8
2023-01-07T06:45:00.724Z,170.2
2023-01-07T06:50:00.729Z,177.7
2023-01-07T06:55:00.667Z,169.8
2023-01-07T07:00:00.707Z,173.3
2023-01-07T07:05:00.686Z,176.6
2023-01-07T07:10:00.736Z,179.9
2023-01-07T07:15:00.693Z,182.2
2023-01-07T07:20:00.700Z,182.5
2023-01-07T07:25:00.775Z,180.2
2023-01-07T07:30:00.677Z,162.6
2023-01-07T07:35:00.798Z,161.9
2023-01-07T07:40:00.738Z,173.7
2023-01-07T07:45:00.654Z,184.4
2023-01-07T07:50:00.670Z,173.5
2023-01-07T07:55:26.771Z,172.1
2023-01-07T08:00:00.704Z,173.6
2023-01-07T08:05:00.686Z,169.6
2023-01-07T08:10:00.734Z,174.5
2023-01-07T08:15:00.721Z,184.5
2023-01-07T08:20:00.669Z,167.9
2023-01-07T08:25:00.742Z,173.0
2023-01-07T08:30:01.008Z,176.3
2023-01-07T08:35:00.665Z,171.7
2023-01-07T08:40:00.726Z,173.0
2023-01-07T08:45:00.674Z,169.0
2023-01-07T08:50:00.726Z,170.9
2023-01-07T08:55:00.669Z,177.2
2023-01-07T09:00:00.685Z,172.4
2023-01-07T09:05:00.706Z,183.3
2023-01-07T09:10:00.655Z,175.1
2023-01-07T09:15:00.903Z,178.3
2023-01-07T09:20:00.696Z,175.6
2023-01-07T09:25:00.655Z,182.4
2023-01-07T09:30:00.784Z,173.3
2023-01-07T09:35:00.732Z,167.4
2023-01-07T09:40:00.733Z,176.2
2023-01-07T09:45:00.686Z,182.1
2023-01-07T09:50:00.739Z,186.5
2023-01-07T09:55:00.674Z,184.2
2023-01-07T10:00:00.683Z,187.6
2023-01-07T10:05:00.673Z,174.4
2023-01-07T10:10:00.685Z,178.1
2023-01-07T10:15:01.131Z,183.8
2023-01-07T10:20:00.782Z,181.9
2023-01-07T10:25:00.658Z,176.2
2023-01-07T10:30:00.808Z,177.6
2023-01-07T10:35:00.654Z,178.6
2023-01-07T10:40:00.757Z,181.2
2023-01-07T10:45:00.673Z,184.7
2023-01-07T10:50:00.673Z,181.7
2023-01-07T10:55:00.679Z,172.8
2023-01-07T11:00:00.755Z,176.1
2023-01-07T11:05:00.653Z,186.9
2023-01-07T11:10:03.612Z,174.5
2023-01-07T11:15:00.908Z,186.6
2023-01-07T11:20:00.771Z,161.1
2023-01-07T11:25:00.651Z,179.5
2023-01-07T11:30:00.760Z,181.2
2023-01-07T11:35:00.646Z,170.6
2023-01-07T11:40:00.690Z,173.8
2023-01-07T11:45:00.691Z,166.0
2023-01-07T11:50:00.658Z,170.8
2023-01-07T11:55:00.714Z,173.4
2023-01-07T12:00:00.669Z,176.9
2023-01-07T12:05:00.658Z,182.4
2023-01-07T12:10:00.686Z,171.9
2023-01-07T12:15:00.795Z,183.6
2023-01-07T12:20:00.656Z,181.9
2023-01-07T12:25:00.651Z,185.6
2023-01-07T12:30:00.705Z,186.9
2023-01-07T12:35:16.084Z,176.2
2023-01-07T12:40:00.753Z,184.8
2023-01-07T12:45:00.653Z,179.7
2023-01-07T12:50:00.924Z,183.8
2023-01-07T12:55:00.663Z,184.8
2023-01-07T13:00:00.706Z,191.1
2023-01-07T13:05:01.203Z,192.3
2023-01-07T13:10:00.669Z,175.6
2023-01-07T13:15:00.653Z,178.7
2023-01-07T13:20:05.004Z,169.9
2023-01-07T13:25:00.648Z,171.6
2023-01-07T13:30:00.703Z,179.9
2023-01-07T13:35:00.703Z,170.2
2023-01-07T13:40:00.751Z,177.6
2023-01-07T13:45:00.779Z,174.5
2023-01-07T13:50:00.744Z,175.7
2023-01-07T13:55:00.689Z,177.7
2023-01-07T14:00:00.886Z,171.8
2023-01-07T14:05:00.739Z,173.0
2023-01-07T14:10:00.735Z,175.6
2023-01-07T14:15:00.652Z,175.9
2023-01-07T14:20:00.729Z,182.8
2023-01-07T14:25:00.714Z,175.6
2023-01-07T14:30:17.330Z,165.8
2023-01-07T14:35:00.658Z,176.0
2023-01-07T14:40:00.681Z,175.7
2023-01-07T14:45:00.668Z,177.6
2023-01-07T14:50:00.743Z,164.8
2023-01-07T14:55:00.686Z,176.3
2023-01-07T15:00:00.739Z,159.5
2023-01-07T15:05:02.683Z,179.4
2023-01-07T15:10:00.776Z,158.9
2023-01-07T15:15:00.791Z,159.1
2023-01-07T15:20:00.714Z,155.9
2023-01-07T15:25:00.703Z,173.8
2023-01-07T15:30:00.764Z,157.9
2023-01-07T15:35:00.712Z,157.5
2023-01-07T15:40:00.711Z,157.1
2023-01-07T15:45:00.705Z,174.3
2023-01-07T15:50:00.979Z,167.3
2023-01-07T15:55:00.703Z,157.0
2023-01-07T16:00:00.707Z,165.9
2023-01-07T16:05:01.119Z,163.8
2023-01-07T16:10:00.718Z,161.3
2023-01-07T16:15:01.515Z,157.5
2023-01-07T16:20:00.791Z,153.0
2023-01-07T16:25:00.704Z,157.5
2023-01-07T16:30:01.128Z,154.4
2023-01-07T16:35:00.788Z,159.3
2023-01-07T16:40:01.142Z,187.8
2023-01-07T16:45:00.733Z,178.7
2023-01-07T16:50:00.837Z,166.1
2023-01-07T16:55:00.644Z,161.7
2023-01-07T17:00:00.767Z,160.7
2023-01-07T17:05:00.705Z,167.5
2023-01-07T17:10:00.734Z,172.8
2023-01-07T17:15:00.788Z,163.7
2023-01-07T17:20:00.761Z,166.4
2023-01-07T17:25:00.651Z,179.9
2023-01-07T17:30:00.732Z,164.1
2023-01-07T17:35:00.688Z,168.3
2023-01-07T17:40:00.943Z,166.8
2023-01-07T17:45:00.695Z,148.2
2023-01-07T17:50:00.683Z,161.7
2023-01-07T17:55:00.789Z,150.7
2023-01-07T18:00:00.717Z,156.7
2023-01-07T18:05:00.703Z,162.3
2023-01-07T18:10:00.769Z,164.0
2023-01-07T18:15:00.700Z,167.6
2023-01-07T18:20:00.705Z,173.7
2023-01-07T18:25:00.669Z,172.2
2023-01-07T18:30:00.773Z,178.7
2023-01-07T18:35:00.737Z,166.6
2023-01-07T18:40:00.842Z,170.0
2023-01-07T18:45:00.768Z,167.2
2023-01-07T18:50:00.754Z,156.0
2023-01-07T18:55:00.661Z,154.3
2023-01-07T19:00:02.662Z,161.7
2023-01-07T19:05:00.674Z,153.9
2023-01-07T19:10:00.741Z,151.2
2023-01-07T19:15:00.758Z,158.3
2023-01-07T19:20:00.688Z,170.4
2023-01-07T19:25:00.719Z,146.0
2023-01-07T19:30:00.710Z,151.9
2023-01-07T19:35:00.664Z,164.2
2023-01-07T19:40:00.732Z,160.9
2023-01-07T19:45:00.703Z,167.4
2023-01-07T19:50:00.741Z,158.8
2023-01-07T19:55:00.673Z,165.0
2023-01-07T20:00:00.749Z,164.1
2023-01-07T20:05:00.666Z,160.2
2023-01-07T20:10:00.833Z,159.8
2023-01-07T20:15:02.761Z,169.9
2023-01-07T20:20:00.705Z,168.5
2023-01-07T20:25:00.684Z,169.0
2023-01-07T20:30:00.675Z,171.2
2023-01-07T20:35:00.653Z,164.3
2023-01-07T20:40:00.743Z,171.2
2023-01-07T20:45:00.783Z,167.0
2023-01-07T20:50:00.709Z,156.0
2023-01-07T20:55:00.678Z,177.7
2023-01-07T21:00:00.735Z,161.6
2023-01-07T21:05:00.718Z,170.4
2023-01-07T21:10:00.775Z,165.4
2023-01-07T21:15:00.664Z,188.2
2023-01-07T21:20:00.754Z,169.6
2023-01-07T21:25:00.682Z,167.2
2023-01-07T21:30:00.657Z,163.7
2023-01-07T21:35:00.660Z,170.0
2023-01-07T21:40:00.739Z,169.6
2023-01-07T21:45:00.651Z,158.3
2023-01-07T21:50:00.697Z,140.8
2023-01-07T21:55:00.686Z,167.3
2023-01-07T22:00:00.696Z,173.3
2023-01-07T22:05:00.652Z,178.3
2023-01-07T22:10:00.755Z,164.2
2023-01-07T22:15:00.666Z,163.2
2023-01-07T22:20:00.820Z,164.6
2023-01-07T22:25:00.691Z,171.6
2023-01-07T22:30:00.698Z,188.6
2023-01-07T22:35:00.689Z,167.3
2023-01-07T22:40:00.693Z,162.4
2023-01-07T22:45:00.655Z,162.2
2023-01-07T22:50:00.718Z,163.7
2023-01-07T22:55:00.663Z,173.6
2023-01-07T23:00:00.826Z,166.5
2023-01-07T23:05:00.655Z,168.1
2023-01-07T23:10:00.766Z,170.6
2023-01-07T23:15:00.734Z,163.9
2023-01-07T23:20:00.716Z,173.1
2023-01-07T23:25:00.638Z,165.9
2023-01-07T23:30:00.761Z,171.1
2023-01-07T23:35:00.683Z,174.5
2023-01-07T23:40:00.672Z,172.0
2023-01-07T23:45:00.715Z,170.8
2023-01-07T23:50:00.682Z,174.9
2023-01-07T23:55:00.743Z,169.9
